createdAt,value
2017-06-18T00:00:15.322Z,18.18
2017-06-18T00:00:34.132Z,18.09
2017-06-18T00:00:53.447Z,18.09
2017-06-18T00:01:12.790Z,18.07
2017-06-18T00:01:31.577Z,18.19
2017-06-18T00:01:50.855Z,18.18
2017-06-18T00:02:10.162Z,18.14
2017-06-18T00:02:29.462Z,18.21
2017-06-18T00:02:48.754Z,18.16
2017-06-18T00:03:07.552Z,18.06
2017-06-18T00:03:26.333Z,17.94
2017-06-18T00:03:45.636Z,17.84
2017-06-18T00:04:04.909Z,17.82
2017-06-18T00:04:24.225Z,17.79
2017-06-18T00:04:43.004Z,17.69
2017-06-18T00:05:01.790Z,17.7
2017-06-18T00:05:21.089Z,17.69
2017-06-18T00:05:40.376Z,17.74
2017-06-18T00:05:59.158Z,17.74
2017-06-18T00:06:18.474Z,17.77
2017-06-18T00:06:37.778Z,17.76
2017-06-18T00:06:57.077Z,17.77
2017-06-18T00:07:16.423Z,17.71
2017-06-18T00:07:35.219Z,17.73
2017-06-18T00:07:54.502Z,17.82
2017-06-18T00:08:13.811Z,17.88
2017-06-18T00:08:33.130Z,17.85
2017-06-18T00:08:52.449Z,17.92
2017-06-18T00:09:11.244Z,17.92
2017-06-18T00:09:30.557Z,17.94
2017-06-18T00:09:49.874Z,17.98
2017-06-18T00:10:07.659Z,17.88
2017-06-18T00:10:26.457Z,17.94
2017-06-18T00:10:45.769Z,17.94
2017-06-18T00:11:05.065Z,17.96
2017-06-18T00:11:24.372Z,17.85
2017-06-18T00:11:43.665Z,17.89
2017-06-18T00:12:02.969Z,17.85
2017-06-18T00:12:20.717Z,17.84
2017-06-18T00:12:40.033Z,17.87
2017-06-18T00:12:59.351Z,17.85
2017-06-18T00:13:18.142Z,17.84
2017-06-18T00:13:36.930Z,17.76
2017-06-18T00:13:56.238Z,17.71
2017-06-18T00:14:15.564Z,17.64
2017-06-18T00:14:33.812Z,17.6
2017-06-18T00:14:52.595Z,17.64
2017-06-18T00:15:11.891Z,17.67
2017-06-18T00:15:30.186Z,17.69
2017-06-18T00:15:48.983Z,17.74
2017-06-18T00:16:07.248Z,17.77
2017-06-18T00:16:26.038Z,17.76
2017-06-18T00:16:45.334Z,17.81
2017-06-18T00:17:04.639Z,17.85
2017-06-18T00:17:23.955Z,17.85
2017-06-18T00:17:43.235Z,17.92
2017-06-18T00:18:02.022Z,17.92
2017-06-18T00:18:20.819Z,17.92
2017-06-18T00:18:40.155Z,17.96
2017-06-18T00:18:59.447Z,17.94
2017-06-18T00:19:18.780Z,17.91
2017-06-18T00:19:38.091Z,17.94
2017-06-18T00:19:57.399Z,17.87
2017-06-18T00:20:15.668Z,17.89
2017-06-18T00:20:34.964Z,17.85
2017-06-18T00:20:54.279Z,17.87
2017-06-18T00:21:13.089Z,17.82
2017-06-18T00:21:32.498Z,17.85
2017-06-18T00:21:51.858Z,17.87
2017-06-18T00:22:10.141Z,17.88
2017-06-18T00:22:29.512Z,17.91
2017-06-18T00:22:48.324Z,17.88
2017-06-18T00:23:07.631Z,17.88
2017-06-18T00:23:26.917Z,17.81
2017-06-18T00:23:46.231Z,17.81
2017-06-18T00:24:04.528Z,17.7
2017-06-18T00:24:23.837Z,17.71
2017-06-18T00:24:43.136Z,17.71
2017-06-18T00:25:02.474Z,17.74
2017-06-18T00:25:21.789Z,17.81
2017-06-18T00:25:41.138Z,17.81
2017-06-18T00:26:00.044Z,17.74
2017-06-18T00:26:18.849Z,17.73
2017-06-18T00:26:38.163Z,17.81
2017-06-18T00:26:57.459Z,17.88
2017-06-18T00:27:16.250Z,17.88
2017-06-18T00:27:35.523Z,17.71
2017-06-18T00:27:54.877Z,17.81
2017-06-18T00:28:14.256Z,17.81
2017-06-18T00:28:33.638Z,17.74
2017-06-18T00:28:52.449Z,17.76
2017-06-18T00:29:11.737Z,17.74
2017-06-18T00:29:30.556Z,17.71
2017-06-18T00:29:49.342Z,17.71
2017-06-18T00:30:08.117Z,17.7
2017-06-18T00:30:26.907Z,17.7
2017-06-18T00:30:45.725Z,17.6
2017-06-18T00:31:05.037Z,17.57
2017-06-18T00:31:24.347Z,17.51
2017-06-18T00:31:43.126Z,17.32
2017-06-18T00:32:02.425Z,17.43
2017-06-18T00:32:21.729Z,17.46
2017-06-18T00:32:40.002Z,17.48
2017-06-18T00:32:59.295Z,17.48
2017-06-18T00:33:18.125Z,17.5
2017-06-18T00:33:36.911Z,17.53
2017-06-18T00:33:56.204Z,17.58
2017-06-18T00:34:15.511Z,17.6
2017-06-18T00:34:34.823Z,17.66
2017-06-18T00:34:53.105Z,17.7
2017-06-18T00:35:11.887Z,17.85
2017-06-18T00:35:31.185Z,17.87
2017-06-18T00:35:49.966Z,17.92
2017-06-18T00:36:08.762Z,17.91
2017-06-18T00:36:28.034Z,17.89
2017-06-18T00:36:47.344Z,17.92
2017-06-18T00:37:06.675Z,18.03
2017-06-18T00:37:25.445Z,17.96
2017-06-18T00:37:44.758Z,17.94
2017-06-18T00:38:04.054Z,17.91
2017-06-18T00:38:23.359Z,17.94
2017-06-18T00:38:42.689Z,18
2017-06-18T00:39:01.485Z,17.96
2017-06-18T00:39:19.748Z,17.94
2017-06-18T00:39:39.064Z,17.85
2017-06-18T00:39:57.857Z,17.91
2017-06-18T00:40:16.649Z,17.88
2017-06-18T00:40:35.960Z,17.79
2017-06-18T00:40:55.255Z,17.81
2017-06-18T00:41:14.064Z,17.89
2017-06-18T00:41:32.338Z,17.77
2017-06-18T00:41:51.639Z,17.85
2017-06-18T00:42:09.937Z,17.82
2017-06-18T00:42:29.239Z,17.73
2017-06-18T00:42:48.556Z,17.7
2017-06-18T00:43:07.851Z,17.81
2017-06-18T00:43:26.661Z,17.71
2017-06-18T00:43:45.974Z,17.71
2017-06-18T00:44:04.761Z,17.69
2017-06-18T00:44:23.570Z,17.76
2017-06-18T00:44:42.366Z,17.66
2017-06-18T00:45:01.154Z,17.67
2017-06-18T00:45:20.480Z,17.63
2017-06-18T00:45:39.269Z,17.53
2017-06-18T00:45:58.047Z,17.54
2017-06-18T00:46:17.370Z,17.47
2017-06-18T00:46:36.675Z,17.44
2017-06-18T00:46:55.997Z,17.47
2017-06-18T00:47:14.766Z,17.48
2017-06-18T00:47:34.080Z,17.35
2017-06-18T00:47:53.373Z,17.43
2017-06-18T00:48:12.167Z,17.46
2017-06-18T00:48:30.967Z,17.36
2017-06-18T00:48:49.755Z,17.38
2017-06-18T00:49:09.063Z,17.38
2017-06-18T00:49:28.357Z,17.3
2017-06-18T00:49:47.135Z,17.43
2017-06-18T00:50:05.930Z,17.32
2017-06-18T00:50:25.242Z,17.35
2017-06-18T00:50:43.530Z,17.35
2017-06-18T00:51:01.791Z,17.35
2017-06-18T00:51:21.087Z,17.35
2017-06-18T00:51:40.393Z,17.32
2017-06-18T00:51:59.715Z,17.28
2017-06-18T00:52:19.000Z,17.28
2017-06-18T00:52:37.793Z,17.36
2017-06-18T00:52:56.565Z,17.21
2017-06-18T00:53:15.852Z,17.32
2017-06-18T00:53:35.143Z,17.23
2017-06-18T00:53:54.461Z,17.26
2017-06-18T00:54:13.261Z,17.36
2017-06-18T00:54:32.579Z,17.35
2017-06-18T00:54:51.359Z,17.4
2017-06-18T00:55:10.661Z,17.4
2017-06-18T00:55:29.985Z,17.39
2017-06-18T00:55:49.310Z,17.4
2017-06-18T00:56:08.616Z,17.35
2017-06-18T00:56:26.877Z,17.4
2017-06-18T00:56:45.689Z,17.33
2017-06-18T00:57:04.996Z,17.28
2017-06-18T00:57:23.771Z,17.25
2017-06-18T00:57:42.549Z,17.13
2017-06-18T00:58:01.338Z,17.23
2017-06-18T00:58:20.641Z,17.11
2017-06-18T00:58:39.944Z,17.3
2017-06-18T00:58:58.772Z,17.25
2017-06-18T00:59:17.581Z,17.28
2017-06-18T00:59:36.900Z,17.29
2017-06-18T00:59:54.686Z,17.26
2017-06-18T01:00:13.979Z,17.25
2017-06-18T01:00:33.264Z,17.32
2017-06-18T01:00:52.555Z,17.32
2017-06-18T01:01:11.353Z,17.23
2017-06-18T01:01:30.172Z,17.36
2017-06-18T01:01:48.994Z,17.26
2017-06-18T01:02:06.781Z,17.29
2017-06-18T01:02:25.557Z,17.28
2017-06-18T01:02:44.363Z,17.23
2017-06-18T01:03:02.639Z,17.25
2017-06-18T01:03:21.465Z,17.1
2017-06-18T01:03:40.798Z,17.11
2017-06-18T01:04:00.099Z,17.21
2017-06-18T01:04:19.435Z,17.21
2017-06-18T01:04:38.228Z,17.13
2017-06-18T01:04:57.546Z,17.2
2017-06-18T01:05:15.826Z,17.13
2017-06-18T01:05:34.611Z,17.11
2017-06-18T01:05:53.420Z,17.18
2017-06-18T01:06:12.733Z,17.14
2017-06-18T01:06:31.000Z,17.17
2017-06-18T01:06:50.289Z,17.14
2017-06-18T01:07:08.554Z,17.02
2017-06-18T01:07:27.859Z,17.1
2017-06-18T01:07:47.165Z,17.05
2017-06-18T01:08:05.928Z,17.15
2017-06-18T01:08:25.217Z,17.08
2017-06-18T01:08:43.484Z,17.13
2017-06-18T01:09:02.259Z,17.13
2017-06-18T01:09:21.039Z,17.07
2017-06-18T01:09:40.355Z,17.05
2017-06-18T01:09:59.662Z,17.05
2017-06-18T01:10:18.978Z,17.03
2017-06-18T01:10:38.273Z,17.07
2017-06-18T01:10:57.057Z,17.05
2017-06-18T01:11:16.368Z,17.07
2017-06-18T01:11:35.650Z,17.07
2017-06-18T01:11:54.948Z,17.11
2017-06-18T01:12:14.239Z,17.1
2017-06-18T01:12:33.037Z,17.1
2017-06-18T01:12:51.829Z,17.02
2017-06-18T01:13:10.644Z,16.99
2017-06-18T01:13:29.954Z,17.08
2017-06-18T01:13:48.238Z,17.05
2017-06-18T01:14:07.550Z,17.03
2017-06-18T01:14:26.360Z,17.08
2017-06-18T01:14:45.659Z,17.11
2017-06-18T01:15:04.450Z,17.2
2017-06-18T01:15:23.743Z,17.29
2017-06-18T01:15:43.042Z,17.26
2017-06-18T01:16:02.356Z,17.21
2017-06-18T01:16:21.647Z,17.3
2017-06-18T01:16:40.960Z,17.25
2017-06-18T01:16:59.766Z,17.2
2017-06-18T01:17:18.584Z,17.3
2017-06-18T01:17:37.860Z,17.3
2017-06-18T01:17:56.636Z,17.2
2017-06-18T01:18:15.926Z,17.13
2017-06-18T01:18:34.731Z,17.25
2017-06-18T01:18:54.039Z,17.25
2017-06-18T01:19:13.356Z,17.28
2017-06-18T01:19:32.665Z,17.29
2017-06-18T01:19:50.966Z,17.25
2017-06-18T01:20:10.299Z,17.36
2017-06-18T01:20:29.637Z,17.23
2017-06-18T01:20:48.950Z,17.25
2017-06-18T01:21:08.253Z,17.28
2017-06-18T01:21:27.560Z,17.29
2017-06-18T01:21:46.367Z,17.3
2017-06-18T01:22:05.671Z,17.25
2017-06-18T01:22:23.954Z,17.23
2017-06-18T01:22:43.260Z,17.25
2017-06-18T01:23:02.580Z,17.3
2017-06-18T01:23:21.402Z,17.26
2017-06-18T01:23:40.722Z,17.25
2017-06-18T01:24:00.053Z,17.2
2017-06-18T01:24:19.381Z,17.21
2017-06-18T01:24:38.681Z,17.2
2017-06-18T01:24:58.023Z,17.15
2017-06-18T01:25:17.337Z,17.17
2017-06-18T01:25:36.658Z,17.07
2017-06-18T01:25:55.973Z,17.15
2017-06-18T01:26:15.302Z,17.21
2017-06-18T01:26:33.564Z,17.23
2017-06-18T01:26:52.966Z,17.17
2017-06-18T01:27:11.768Z,17.28
2017-06-18T01:27:30.553Z,17.32
2017-06-18T01:27:49.861Z,17.25
2017-06-18T01:28:08.657Z,17.32
2017-06-18T01:28:27.956Z,17.29
2017-06-18T01:28:47.256Z,17.13
2017-06-18T01:29:06.023Z,17.26
2017-06-18T01:29:25.349Z,17.11
2017-06-18T01:29:44.131Z,17.25
2017-06-18T01:30:03.434Z,17.11
2017-06-18T01:30:21.701Z,17.15
2017-06-18T01:30:41.007Z,17.15
2017-06-18T01:31:00.132Z,17.08
2017-06-18T01:31:19.028Z,17.13
2017-06-18T01:31:38.473Z,17.05
2017-06-18T01:31:58.505Z,16.99
2017-06-18T01:32:18.505Z,17.03
2017-06-18T01:32:37.973Z,17.1
2017-06-18T01:32:58.001Z,17.03
2017-06-18T01:33:17.994Z,17.1
2017-06-18T01:33:37.994Z,17.05
2017-06-18T01:33:56.902Z,17.11
2017-06-18T01:34:16.975Z,17.05
2017-06-18T01:34:36.999Z,17.05
2017-06-18T01:34:57.033Z,17
2017-06-18T01:35:16.481Z,17.03
2017-06-18T01:35:36.511Z,17.1
2017-06-18T01:35:56.546Z,17.13
2017-06-18T01:36:16.561Z,17.03
2017-06-18T01:36:36.616Z,17
2017-06-18T01:36:56.636Z,17.08
2017-06-18T01:37:16.660Z,17.03
2017-06-18T01:37:36.664Z,16.95
2017-06-18T01:37:56.676Z,16.95
2017-06-18T01:38:16.667Z,16.98
2017-06-18T01:38:36.699Z,16.95
2017-06-18T01:38:56.153Z,16.95
2017-06-18T01:39:16.168Z,17.07
2017-06-18T01:39:35.603Z,17.1
2017-06-18T01:39:55.601Z,16.95
2017-06-18T01:40:15.061Z,16.95
2017-06-18T01:40:34.540Z,17.1
2017-06-18T01:40:53.978Z,17.07
2017-06-18T01:41:13.987Z,17.1
2017-06-18T01:41:33.988Z,17
2017-06-18T01:41:53.999Z,17
2017-06-18T01:42:14.004Z,17.14
2017-06-18T01:42:34.022Z,17
2017-06-18T01:42:54.022Z,17
2017-06-18T01:43:14.016Z,17.08
2017-06-18T01:43:34.038Z,17.08
2017-06-18T01:43:53.518Z,17.05
2017-06-18T01:44:13.519Z,17.11
2017-06-18T01:44:32.963Z,17.05
2017-06-18T01:44:52.991Z,17.08
2017-06-18T01:45:13.028Z,17.1
2017-06-18T01:45:33.038Z,17.13
2017-06-18T01:45:53.041Z,17.1
2017-06-18T01:46:11.918Z,17.17
2017-06-18T01:46:31.951Z,17.13
2017-06-18T01:46:51.410Z,17.2
2017-06-18T01:47:10.861Z,17.15
2017-06-18T01:47:30.890Z,17.03
2017-06-18T01:47:50.922Z,17.13
2017-06-18T01:48:10.972Z,17.15
2017-06-18T01:48:30.982Z,17.14
2017-06-18T01:48:50.406Z,16.98
2017-06-18T01:49:10.442Z,17.15
2017-06-18T01:49:30.457Z,17.07
2017-06-18T01:49:49.909Z,17.11
2017-06-18T01:50:09.905Z,17.07
2017-06-18T01:50:29.914Z,17.03
2017-06-18T01:50:49.953Z,17
2017-06-18T01:51:09.987Z,17.05
2017-06-18T01:51:30.007Z,17.05
2017-06-18T01:51:50.045Z,17.02
2017-06-18T01:52:10.042Z,17.05
2017-06-18T01:52:30.077Z,17.1
2017-06-18T01:52:50.085Z,16.98
2017-06-18T01:53:09.002Z,17.07
2017-06-18T01:53:28.449Z,17
2017-06-18T01:53:48.490Z,16.98
2017-06-18T01:54:07.477Z,16.99
2017-06-18T01:54:27.495Z,16.98
2017-06-18T01:54:46.944Z,16.96
2017-06-18T01:55:05.854Z,16.93
2017-06-18T01:55:25.861Z,16.96
2017-06-18T01:55:45.877Z,16.95
2017-06-18T01:56:05.935Z,16.99
2017-06-18T01:56:25.970Z,16.99
2017-06-18T01:56:45.988Z,16.92
2017-06-18T01:57:06.014Z,17.02
2017-06-18T01:57:26.026Z,16.96
2017-06-18T01:57:46.081Z,17.02
2017-06-18T01:58:06.153Z,16.9
2017-06-18T01:58:26.239Z,16.95
2017-06-18T01:58:46.262Z,17
2017-06-18T01:59:05.713Z,16.93
2017-06-18T01:59:25.708Z,16.99
2017-06-18T01:59:45.727Z,16.93
2017-06-18T02:00:05.223Z,16.96
2017-06-18T02:00:25.239Z,16.93
2017-06-18T02:00:45.251Z,16.92
2017-06-18T02:01:05.248Z,16.93
2017-06-18T02:01:25.238Z,16.9
2017-06-18T02:01:45.253Z,16.95
2017-06-18T02:02:05.276Z,16.82
2017-06-18T02:02:25.311Z,16.92
2017-06-18T02:03:19.399Z,16.85
2017-06-18T02:03:39.396Z,16.78
2017-06-18T02:03:59.417Z,16.85
2017-06-18T02:04:19.445Z,16.85
2017-06-18T02:04:39.443Z,16.82
2017-06-18T02:04:59.438Z,16.85
2017-06-18T02:05:18.884Z,16.88
2017-06-18T02:05:38.924Z,16.88
2017-06-18T02:05:58.920Z,16.81
2017-06-18T02:06:18.932Z,16.84
2017-06-18T02:06:38.993Z,16.82
2017-06-18T02:06:58.543Z,16.82
2017-06-18T02:07:18.568Z,16.75
2017-06-18T02:07:38.594Z,16.82
2017-06-18T02:07:58.628Z,16.78
2017-06-18T02:08:18.641Z,16.81
2017-06-18T02:08:38.093Z,16.71
2017-06-18T02:08:58.126Z,16.88
2017-06-18T02:09:18.139Z,16.82
2017-06-18T02:09:37.585Z,16.8
2017-06-18T02:09:57.024Z,16.84
2017-06-18T02:10:17.058Z,16.75
2017-06-18T02:10:37.090Z,16.74
2017-06-18T02:10:56.556Z,16.66
2017-06-18T02:11:16.617Z,16.65
2017-06-18T02:11:36.109Z,16.73
2017-06-18T02:11:56.141Z,16.7
2017-06-18T02:12:16.156Z,16.73
2017-06-18T02:12:36.174Z,16.7
2017-06-18T02:12:55.633Z,16.73
2017-06-18T02:13:15.074Z,16.73
2017-06-18T02:13:35.102Z,16.67
2017-06-18T02:13:55.124Z,16.67
2017-06-18T02:14:15.141Z,16.66
2017-06-18T02:14:35.153Z,16.7
2017-06-18T02:14:55.165Z,16.75
2017-06-18T02:15:15.158Z,16.71
2017-06-18T02:15:34.037Z,16.8
2017-06-18T02:15:54.042Z,16.71
2017-06-18T02:16:14.049Z,16.67
2017-06-18T02:16:33.543Z,16.7
2017-06-18T02:16:53.556Z,16.75
2017-06-18T02:17:13.568Z,16.75
2017-06-18T02:17:33.613Z,16.65
2017-06-18T02:17:53.591Z,16.74
2017-06-18T02:18:13.598Z,16.74
2017-06-18T02:18:33.636Z,16.74
2017-06-18T02:18:53.651Z,16.74
2017-06-18T02:19:13.654Z,16.73
2017-06-18T02:19:33.657Z,16.71
2017-06-18T02:19:53.682Z,16.74
2017-06-18T02:20:13.922Z,16.71
2017-06-18T02:20:33.966Z,16.71
2017-06-18T02:20:53.966Z,16.7
2017-06-18T02:21:13.999Z,16.67
2017-06-18T02:21:34.001Z,16.67
2017-06-18T02:21:54.043Z,16.59
2017-06-18T02:22:14.067Z,16.53
2017-06-18T02:22:34.090Z,16.62
2017-06-18T02:22:54.108Z,16.7
2017-06-18T02:23:14.136Z,16.71
2017-06-18T02:23:34.159Z,16.56
2017-06-18T02:23:53.599Z,16.63
2017-06-18T02:24:13.622Z,16.74
2017-06-18T02:24:33.625Z,16.57
2017-06-18T02:24:53.632Z,16.7
2017-06-18T02:25:13.095Z,16.74
2017-06-18T02:25:32.554Z,16.67
2017-06-18T02:25:52.006Z,16.71
2017-06-18T02:26:12.019Z,16.7
2017-06-18T02:26:31.484Z,16.66
2017-06-18T02:26:50.919Z,16.73
2017-06-18T02:27:10.959Z,16.73
2017-06-18T02:27:30.967Z,16.67
2017-06-18T02:27:50.979Z,16.57
2017-06-18T02:28:09.855Z,16.56
2017-06-18T02:28:29.876Z,16.53
2017-06-18T02:28:49.887Z,16.67
2017-06-18T02:29:09.351Z,16.71
2017-06-18T02:29:29.354Z,16.67
2017-06-18T02:29:49.367Z,16.73
2017-06-18T02:30:09.397Z,16.67
2017-06-18T02:30:29.444Z,16.74
2017-06-18T02:30:49.493Z,16.66
2017-06-18T02:31:09.518Z,16.75
2017-06-18T02:31:29.549Z,16.7
2017-06-18T02:31:49.561Z,16.75
2017-06-18T02:32:08.462Z,16.7
2017-06-18T02:32:28.481Z,16.66
2017-06-18T02:32:47.935Z,16.75
2017-06-18T02:33:06.801Z,16.73
2017-06-18T02:33:26.262Z,16.73
2017-06-18T02:33:46.278Z,16.7
2017-06-18T02:34:06.328Z,16.62
2017-06-18T02:34:26.357Z,16.63
2017-06-18T02:34:46.431Z,16.63
2017-06-18T02:35:05.915Z,16.6
2017-06-18T02:35:25.471Z,16.62
2017-06-18T02:35:46.176Z,16.74
2017-06-18T02:36:05.621Z,16.67
2017-06-18T02:36:25.645Z,16.59
2017-06-18T02:36:45.663Z,16.65
2017-06-18T02:37:05.145Z,16.59
2017-06-18T02:37:25.155Z,16.55
2017-06-18T02:37:44.617Z,16.57
2017-06-18T02:38:04.061Z,16.6
2017-06-18T02:38:24.070Z,16.55
2017-06-18T02:38:44.073Z,16.6
2017-06-18T02:39:03.537Z,16.56
2017-06-18T02:39:23.573Z,16.56
2017-06-18T02:39:43.634Z,16.53
2017-06-18T02:40:03.659Z,16.55
2017-06-18T02:40:23.693Z,16.53
2017-06-18T02:40:43.149Z,16.53
2017-06-18T02:41:03.158Z,16.55
2017-06-18T02:41:22.606Z,16.47
2017-06-18T02:41:42.633Z,16.52
2017-06-18T02:42:02.633Z,16.53
2017-06-18T02:42:22.685Z,16.56
2017-06-18T02:42:42.142Z,16.47
2017-06-18T02:43:01.594Z,16.52
2017-06-18T02:43:21.043Z,16.52
2017-06-18T02:43:40.517Z,16.57
2017-06-18T02:44:00.545Z,16.48
2017-06-18T02:44:20.562Z,16.52
2017-06-18T02:44:40.555Z,16.53
2017-06-18T02:45:00.580Z,16.48
2017-06-18T02:45:20.011Z,16.55
2017-06-18T02:45:40.010Z,16.52
2017-06-18T02:45:59.622Z,16.52
2017-06-18T02:46:19.819Z,16.52
2017-06-18T02:46:58.625Z,16.45
2017-06-18T02:47:17.954Z,16.42
2017-06-18T02:47:37.249Z,16.47
2017-06-18T02:47:56.559Z,16.52
2017-06-18T02:48:15.873Z,16.45
2017-06-18T02:48:35.157Z,16.47
2017-06-18T02:48:53.950Z,16.34
2017-06-18T02:49:13.243Z,16.33
2017-06-18T02:49:32.025Z,16.38
2017-06-18T02:49:51.322Z,16.38
2017-06-18T02:50:10.626Z,16.37
2017-06-18T02:50:29.933Z,16.35
2017-06-18T02:50:49.258Z,16.3
2017-06-18T02:51:08.563Z,16.37
2017-06-18T02:51:27.859Z,16.35
2017-06-18T02:51:47.186Z,16.37
2017-06-18T02:52:06.510Z,16.34
2017-06-18T02:52:25.298Z,16.41
2017-06-18T02:52:44.592Z,16.38
2017-06-18T02:53:03.883Z,16.37
2017-06-18T02:53:23.180Z,16.37
2017-06-18T02:53:42.498Z,16.25
2017-06-18T02:54:01.304Z,16.26
2017-06-18T02:54:20.609Z,16.23
2017-06-18T02:54:39.932Z,16.25
2017-06-18T02:54:58.727Z,16.22
2017-06-18T02:55:18.060Z,16.29
2017-06-18T02:55:36.840Z,16.29
2017-06-18T02:55:54.596Z,16.2
2017-06-18T02:56:13.915Z,16.23
2017-06-18T02:56:33.262Z,16.25
2017-06-18T02:56:52.548Z,16.2
2017-06-18T02:57:11.857Z,16.2
2017-06-18T02:57:31.168Z,16.07
2017-06-18T02:57:50.472Z,16.22
2017-06-18T02:58:09.247Z,16.22
2017-06-18T02:58:28.557Z,16.18
2017-06-18T02:58:47.860Z,16.12
2017-06-18T02:59:06.657Z,16.23
2017-06-18T02:59:24.388Z,16.23
2017-06-18T02:59:43.687Z,16.27
2017-06-18T03:00:02.984Z,16.25
2017-06-18T03:00:21.263Z,16.23
2017-06-18T03:00:40.041Z,16.4
2017-06-18T03:00:59.349Z,16.4
2017-06-18T03:01:18.132Z,16.45
2017-06-18T03:01:37.436Z,16.44
2017-06-18T03:01:56.715Z,16.48
2017-06-18T03:02:16.012Z,16.45
2017-06-18T03:02:35.327Z,16.55
2017-06-18T03:02:54.656Z,16.55
2017-06-18T03:03:13.451Z,16.38
2017-06-18T03:03:32.735Z,16.48
2017-06-18T03:03:51.531Z,16.42
2017-06-18T03:04:10.843Z,16.45
2017-06-18T03:04:29.127Z,16.45
2017-06-18T03:04:48.426Z,16.52
2017-06-18T03:05:07.225Z,16.5
2017-06-18T03:05:26.060Z,16.53
2017-06-18T03:05:45.373Z,16.45
2017-06-18T03:06:04.706Z,16.44
2017-06-18T03:06:23.496Z,16.45
2017-06-18T03:06:42.784Z,16.44
2017-06-18T03:07:02.077Z,16.45
2017-06-18T03:07:21.395Z,16.53
2017-06-18T03:07:40.707Z,16.5
2017-06-18T03:08:00.039Z,16.5
2017-06-18T03:08:19.341Z,16.52
2017-06-18T03:08:38.645Z,16.55
2017-06-18T03:08:57.936Z,16.53
2017-06-18T03:09:16.223Z,16.6
2017-06-18T03:09:35.548Z,16.6
2017-06-18T03:09:53.838Z,16.56
2017-06-18T03:10:12.612Z,16.6
2017-06-18T03:10:31.396Z,16.53
2017-06-18T03:10:50.732Z,16.59
2017-06-18T03:11:09.516Z,16.65
2017-06-18T03:11:28.839Z,16.63
2017-06-18T03:11:48.143Z,16.67
2017-06-18T03:12:06.929Z,16.6
2017-06-18T03:12:25.705Z,16.56
2017-06-18T03:12:45.038Z,16.48
2017-06-18T03:13:03.812Z,16.55
2017-06-18T03:13:23.089Z,16.48
2017-06-18T03:13:42.389Z,16.52
2017-06-18T03:14:01.697Z,16.45
2017-06-18T03:14:21.033Z,16.48
2017-06-18T03:14:40.353Z,16.55
2017-06-18T03:14:59.685Z,16.53
2017-06-18T03:15:18.456Z,16.48
2017-06-18T03:15:37.772Z,16.5
2017-06-18T03:15:57.097Z,16.52
2017-06-18T03:16:14.865Z,16.41
2017-06-18T03:16:34.149Z,16.41
2017-06-18T03:16:53.466Z,16.53
2017-06-18T03:17:12.257Z,16.48
2017-06-18T03:17:31.535Z,16.48
2017-06-18T03:17:50.827Z,16.47
2017-06-18T03:18:10.164Z,16.48
2017-06-18T03:18:28.973Z,16.4
2017-06-18T03:18:48.278Z,16.44
2017-06-18T03:19:06.038Z,16.48
2017-06-18T03:19:25.321Z,16.38
2017-06-18T03:19:44.632Z,16.23
2017-06-18T03:20:03.425Z,16.26
2017-06-18T03:20:22.723Z,16.22
2017-06-18T03:20:42.019Z,16.3
2017-06-18T03:21:01.293Z,16.22
2017-06-18T03:21:20.069Z,16.26
2017-06-18T03:21:39.405Z,16.3
2017-06-18T03:21:59.936Z,16.23
2017-06-18T03:22:18.730Z,16.29
2017-06-18T03:22:37.510Z,16.26
2017-06-18T03:22:56.796Z,16.34
2017-06-18T03:23:16.134Z,16.35
2017-06-18T03:23:34.935Z,16.38
2017-06-18T03:23:53.733Z,16.34
2017-06-18T03:24:13.055Z,16.33
2017-06-18T03:24:31.848Z,16.37
2017-06-18T03:24:51.169Z,16.29
2017-06-18T03:25:09.430Z,16.26
2017-06-18T03:25:28.727Z,16.22
2017-06-18T03:25:48.026Z,16.14
2017-06-18T03:26:07.377Z,16.25
2017-06-18T03:26:26.167Z,16.23
2017-06-18T03:26:45.468Z,16.16
2017-06-18T03:27:04.278Z,16.22
2017-06-18T03:27:23.583Z,16.15
2017-06-18T03:27:42.365Z,16.23
2017-06-18T03:28:01.671Z,16.23
2017-06-18T03:28:20.983Z,16.26
2017-06-18T03:28:39.782Z,16.22
2017-06-18T03:28:58.583Z,16.33
2017-06-18T03:29:17.897Z,16.3
2017-06-18T03:29:37.227Z,16.27
2017-06-18T03:29:56.562Z,16.23
2017-06-18T03:30:15.360Z,16.25
2017-06-18T03:30:34.156Z,16.26
2017-06-18T03:30:53.640Z,16.27
2017-06-18T03:31:12.944Z,16.23
2017-06-18T03:31:32.240Z,16.14
2017-06-18T03:31:51.572Z,16.15
2017-06-18T03:32:10.874Z,16.26
2017-06-18T03:32:30.165Z,16.29
2017-06-18T03:32:48.984Z,16.23
2017-06-18T03:33:08.275Z,16.23
2017-06-18T03:33:27.572Z,16.22
2017-06-18T03:33:46.855Z,16.22
2017-06-18T03:34:06.179Z,16.2
2017-06-18T03:34:25.491Z,16.12
2017-06-18T03:34:44.800Z,16.14
2017-06-18T03:35:03.582Z,16.22
2017-06-18T03:35:21.850Z,16.27
2017-06-18T03:35:41.158Z,16.33
2017-06-18T03:35:59.953Z,16.29
2017-06-18T03:36:19.236Z,16.26
2017-06-18T03:36:37.514Z,16.3
2017-06-18T03:36:56.842Z,16.4
2017-06-18T03:37:15.625Z,16.4
2017-06-18T03:37:33.883Z,16.33
2017-06-18T03:37:53.175Z,16.41
2017-06-18T03:38:12.484Z,16.33
2017-06-18T03:38:31.275Z,16.4
2017-06-18T03:38:50.597Z,16.34
2017-06-18T03:39:09.913Z,16.4
2017-06-18T03:39:29.234Z,16.4
2017-06-18T03:39:48.552Z,16.37
2017-06-18T03:40:06.857Z,16.37
2017-06-18T03:40:26.156Z,16.35
2017-06-18T03:40:44.948Z,16.25
2017-06-18T03:41:04.241Z,16.2
2017-06-18T03:41:23.024Z,16.25
2017-06-18T03:41:42.392Z,16.33
2017-06-18T03:42:01.695Z,16.37
2017-06-18T03:42:21.042Z,16.38
2017-06-18T03:42:40.352Z,16.4
2017-06-18T03:42:59.678Z,16.4
2017-06-18T03:43:18.985Z,16.47
2017-06-18T03:43:37.764Z,16.47
2017-06-18T03:43:57.041Z,16.48
2017-06-18T03:44:16.333Z,16.52
2017-06-18T03:44:35.107Z,16.52
2017-06-18T03:44:53.917Z,16.56
2017-06-18T03:45:12.713Z,16.59
2017-06-18T03:45:31.529Z,16.48
2017-06-18T03:45:50.861Z,16.5
2017-06-18T03:46:09.145Z,16.52
2017-06-18T03:46:28.457Z,16.5
2017-06-18T03:46:47.945Z,16.45
2017-06-18T03:47:07.241Z,16.4
2017-06-18T03:47:26.544Z,16.45
2017-06-18T03:47:45.822Z,16.48
2017-06-18T03:48:04.600Z,16.45
2017-06-18T03:48:23.396Z,16.41
2017-06-18T03:48:42.718Z,16.45
2017-06-18T03:49:02.002Z,16.5
2017-06-18T03:49:21.281Z,16.37
2017-06-18T03:49:40.559Z,16.3
2017-06-18T03:49:59.335Z,16.37
2017-06-18T03:50:18.135Z,16.4
2017-06-18T03:50:36.929Z,16.29
2017-06-18T03:50:56.226Z,16.29
2017-06-18T03:51:14.997Z,16.27
2017-06-18T03:51:34.318Z,16.26
2017-06-18T03:51:53.653Z,16.27
2017-06-18T03:52:12.441Z,16.23
2017-06-18T03:52:31.233Z,16.25
2017-06-18T03:52:50.555Z,16.25
2017-06-18T03:53:09.343Z,16.2
2017-06-18T03:53:28.643Z,16.22
2017-06-18T03:53:47.938Z,16.3
2017-06-18T03:54:07.237Z,16.22
2017-06-18T03:54:26.595Z,16.26
2017-06-18T03:54:45.887Z,16.27
2017-06-18T03:55:05.264Z,16.29
2017-06-18T03:55:24.565Z,16.29
2017-06-18T03:55:43.342Z,16.25
2017-06-18T03:56:02.130Z,16.22
2017-06-18T03:56:21.450Z,16.18
2017-06-18T03:56:40.767Z,16.23
2017-06-18T03:57:00.055Z,16.2
2017-06-18T03:57:19.369Z,16.22
2017-06-18T03:57:38.151Z,16.26
2017-06-18T03:57:56.959Z,16.25
2017-06-18T03:58:16.246Z,16.07
2017-06-18T03:58:35.035Z,16.16
2017-06-18T03:58:53.828Z,16.14
2017-06-18T03:59:12.610Z,16.08
2017-06-18T03:59:31.894Z,16.08
2017-06-18T03:59:50.710Z,16.01
2017-06-18T04:00:08.961Z,16.01
2017-06-18T04:00:28.260Z,16
2017-06-18T04:00:47.552Z,15.96
2017-06-18T04:01:06.869Z,16.04
2017-06-18T04:01:26.153Z,15.99
2017-06-18T04:01:44.985Z,15.99
2017-06-18T04:02:04.293Z,16.01
2017-06-18T04:02:22.563Z,16.04
2017-06-18T04:02:41.897Z,16.03
2017-06-18T04:03:01.217Z,16.03
2017-06-18T04:03:20.528Z,15.99
2017-06-18T04:03:39.335Z,16.06
2017-06-18T04:03:57.597Z,16
2017-06-18T04:04:16.910Z,16.12
2017-06-18T04:04:36.217Z,16.06
2017-06-18T04:04:54.983Z,15.97
2017-06-18T04:05:14.286Z,16.03
2017-06-18T04:05:33.594Z,16
2017-06-18T04:05:52.894Z,15.99
2017-06-18T04:06:12.237Z,16.01
2017-06-18T04:06:31.521Z,16.07
2017-06-18T04:06:49.810Z,16.06
2017-06-18T04:07:09.119Z,16.08
2017-06-18T04:07:28.398Z,16.07
2017-06-18T04:07:47.189Z,16.14
2017-06-18T04:08:06.469Z,16.12
2017-06-18T04:08:25.779Z,16.1
2017-06-18T04:08:44.585Z,16.03
2017-06-18T04:09:03.901Z,16.14
2017-06-18T04:09:22.184Z,16.1
2017-06-18T04:09:41.469Z,16.15
2017-06-18T04:10:00.793Z,16.07
2017-06-18T04:10:20.126Z,16.16
2017-06-18T04:10:39.413Z,16.2
2017-06-18T04:10:58.190Z,16.06